sensor_id;sensor_type;location;lat;lon;timestamp;temperature;humidity
55992;DHT22;66896;50.924;4.572;2023-02-12T00:01:44;9.00;92.50
55992;DHT22;66896;50.924;4.572;2023-02-12T00:04:10;9.10;92.40
55992;DHT22;66896;50.924;4.572;2023-02-12T00:06:36;9.00;92.20
55992;DHT22;66896;50.924;4.572;2023-02-12T00:09:02;8.70;92.10
55992;DHT22;66896;50.924;4.572;2023-02-12T00:11:28;8.60;93.20
55992;DHT22;66896;50.924;4.572;2023-02-12T00:13:54;8.50;93.80
55992;DHT22;66896;50.924;4.572;2023-02-12T00:16:21;8.50;93.80
55992;DHT22;66896;50.924;4.572;2023-02-12T00:18:50;8.60;93.60
55992;DHT22;66896;50.924;4.572;2023-02-12T00:21:16;8.50;93.60
55992;DHT22;66896;50.924;4.572;2023-02-12T00:23:41;8.60;93.50
55992;DHT22;66896;50.924;4.572;2023-02-12T00:26:08;8.70;93.40
55992;DHT22;66896;50.924;4.572;2023-02-12T00:28:34;8.60;93.50
55992;DHT22;66896;50.924;4.572;2023-02-12T00:31:04;8.60;93.60
55992;DHT22;66896;50.924;4.572;2023-02-12T00:33:30;8.60;93.80
55992;DHT22;66896;50.924;4.572;2023-02-12T00:35:55;8.70;93.60
55992;DHT22;66896;50.924;4.572;2023-02-12T00:38:21;8.60;93.70
55992;DHT22;66896;50.924;4.572;2023-02-12T00:40:47;8.50;94.10
55992;DHT22;66896;50.924;4.572;2023-02-12T00:43:13;8.40;94.20
55992;DHT22;66896;50.924;4.572;2023-02-12T00:45:39;8.50;94.00
55992;DHT22;66896;50.924;4.572;2023-02-12T00:48:04;8.50;93.70
55992;DHT22;66896;50.924;4.572;2023-02-12T00:50:30;8.70;93.10
55992;DHT22;66896;50.924;4.572;2023-02-12T00:52:55;8.60;93.40
55992;DHT22;66896;50.924;4.572;2023-02-12T00:55:21;8.50;93.60
55992;DHT22;66896;50.924;4.572;2023-02-12T00:57:46;8.30;94.10
55992;DHT22;66896;50.924;4.572;2023-02-12T01:00:13;8.60;92.40
55992;DHT22;66896;50.924;4.572;2023-02-12T01:02:39;8.50;92.60
55992;DHT22;66896;50.924;4.572;2023-02-12T01:05:04;8.20;93.20
55992;DHT22;66896;50.924;4.572;2023-02-12T01:07:30;8.20;93.70
55992;DHT22;66896;50.924;4.572;2023-02-12T01:09:59;8.10;93.10
55992;DHT22;66896;50.924;4.572;2023-02-12T01:12:24;8.20;93.60
55992;DHT22;66896;50.924;4.572;2023-02-12T01:14:50;8.40;93.00
55992;DHT22;66896;50.924;4.572;2023-02-12T01:17:16;8.60;91.70
55992;DHT22;66896;50.924;4.572;2023-02-12T01:19:42;8.60;91.00
55992;DHT22;66896;50.924;4.572;2023-02-12T01:22:07;8.30;91.80
55992;DHT22;66896;50.924;4.572;2023-02-12T01:24:33;7.90;92.90
55992;DHT22;66896;50.924;4.572;2023-02-12T01:26:59;7.70;94.00
55992;DHT22;66896;50.924;4.572;2023-02-12T01:29:24;7.80;93.80
55992;DHT22;66896;50.924;4.572;2023-02-12T01:31:50;8.00;93.70
55992;DHT22;66896;50.924;4.572;2023-02-12T01:34:15;8.00;93.70
55992;DHT22;66896;50.924;4.572;2023-02-12T01:36:41;8.10;93.70
55992;DHT22;66896;50.924;4.572;2023-02-12T01:39:06;8.30;93.10
55992;DHT22;66896;50.924;4.572;2023-02-12T01:41:33;8.30;92.60
55992;DHT22;66896;50.924;4.572;2023-02-12T01:46:46;8.10;93.30
55992;DHT22;66896;50.924;4.572;2023-02-12T01:49:13;8.30;92.50
55992;DHT22;66896;50.924;4.572;2023-02-12T01:51:41;8.40;92.50
55992;DHT22;66896;50.924;4.572;2023-02-12T01:54:07;8.30;92.70
55992;DHT22;66896;50.924;4.572;2023-02-12T01:56:34;8.20;93.00
55992;DHT22;66896;50.924;4.572;2023-02-12T01:59:00;7.90;93.20
55992;DHT22;66896;50.924;4.572;2023-02-12T02:01:26;7.60;94.20
55992;DHT22;66896;50.924;4.572;2023-02-12T02:04:04;7.70;94.20
55992;DHT22;66896;50.924;4.572;2023-02-12T02:06:32;7.80;94.10
55992;DHT22;66896;50.924;4.572;2023-02-12T02:08:58;7.70;94.60
55992;DHT22;66896;50.924;4.572;2023-02-12T02:11:26;7.60;94.70
55992;DHT22;66896;50.924;4.572;2023-02-12T02:14:10;7.60;95.10
55992;DHT22;66896;50.924;4.572;2023-02-12T02:22:16;8.00;93.60
55992;DHT22;66896;50.924;4.572;2023-02-12T02:30:09;8.20;92.30
55992;DHT22;66896;50.924;4.572;2023-02-12T02:32:37;8.40;91.10
55992;DHT22;66896;50.924;4.572;2023-02-12T02:35:10;8.20;92.20
55992;DHT22;66896;50.924;4.572;2023-02-12T02:40:17;8.00;92.80
55992;DHT22;66896;50.924;4.572;2023-02-12T02:45:27;8.10;93.00
55992;DHT22;66896;50.924;4.572;2023-02-12T02:47:58;8.10;92.60
55992;DHT22;66896;50.924;4.572;2023-02-12T02:50:24;7.90;92.30
55992;DHT22;66896;50.924;4.572;2023-02-12T02:52:55;7.70;92.90
55992;DHT22;66896;50.924;4.572;2023-02-12T02:55:22;7.60;93.20
55992;DHT22;66896;50.924;4.572;2023-02-12T02:58:05;7.40;93.90
55992;DHT22;66896;50.924;4.572;2023-02-12T03:00:34;7.40;94.10
55992;DHT22;66896;50.924;4.572;2023-02-12T03:03:01;7.60;93.80
55992;DHT22;66896;50.924;4.572;2023-02-12T03:05:30;7.70;93.40
55992;DHT22;66896;50.924;4.572;2023-02-12T03:08:08;7.60;93.70
55992;DHT22;66896;50.924;4.572;2023-02-12T03:10:38;7.70;93.10
55992;DHT22;66896;50.924;4.572;2023-02-12T03:13:22;7.90;92.60
55992;DHT22;66896;50.924;4.572;2023-02-12T03:15:53;8.00;92.40
55992;DHT22;66896;50.924;4.572;2023-02-12T03:18:23;8.10;92.20
55992;DHT22;66896;50.924;4.572;2023-02-12T03:20:51;7.90;92.00
55992;DHT22;66896;50.924;4.572;2023-02-12T03:23:20;8.00;91.80
55992;DHT22;66896;50.924;4.572;2023-02-12T03:25:51;7.50;93.10
55992;DHT22;66896;50.924;4.572;2023-02-12T03:28:19;7.20;94.20
55992;DHT22;66896;50.924;4.572;2023-02-12T03:30:53;7.50;94.00
55992;DHT22;66896;50.924;4.572;2023-02-12T03:33:43;7.50;94.00
55992;DHT22;66896;50.924;4.572;2023-02-12T03:36:15;7.40;94.00
55992;DHT22;66896;50.924;4.572;2023-02-12T03:38:44;7.50;92.60
55992;DHT22;66896;50.924;4.572;2023-02-12T03:41:13;7.50;91.20
55992;DHT22;66896;50.924;4.572;2023-02-12T03:43:50;7.70;90.80
55992;DHT22;66896;50.924;4.572;2023-02-12T03:46:27;8.10;91.20
55992;DHT22;66896;50.924;4.572;2023-02-12T03:49:02;8.10;91.40
55992;DHT22;66896;50.924;4.572;2023-02-12T03:51:33;8.10;91.60
55992;DHT22;66896;50.924;4.572;2023-02-12T03:53:59;8.10;91.60
55992;DHT22;66896;50.924;4.572;2023-02-12T03:56:34;8.00;90.80
55992;DHT22;66896;50.924;4.572;2023-02-12T03:59:02;7.60;91.30
55992;DHT22;66896;50.924;4.572;2023-02-12T04:01:27;7.20;93.00
55992;DHT22;66896;50.924;4.572;2023-02-12T04:03:54;7.20;93.70
55992;DHT22;66896;50.924;4.572;2023-02-12T04:08:46;7.60;92.70
55992;DHT22;66896;50.924;4.572;2023-02-12T04:11:20;7.80;92.50
55992;DHT22;66896;50.924;4.572;2023-02-12T04:18:48;7.70;91.40
55992;DHT22;66896;50.924;4.572;2023-02-12T04:21:25;7.60;91.60
55992;DHT22;66896;50.924;4.572;2023-02-12T04:31:48;7.30;92.60
55992;DHT22;66896;50.924;4.572;2023-02-12T04:39:29;7.40;91.00
55992;DHT22;66896;50.924;4.572;2023-02-12T04:41:59;7.40;91.30
55992;DHT22;66896;50.924;4.572;2023-02-12T04:44:26;7.70;91.50
55992;DHT22;66896;50.924;4.572;2023-02-12T04:46:52;7.70;91.60
55992;DHT22;66896;50.924;4.572;2023-02-12T04:49:18;7.80;91.40
55992;DHT22;66896;50.924;4.572;2023-02-12T04:51:44;7.50;92.20
55992;DHT22;66896;50.924;4.572;2023-02-12T04:54:10;7.40;92.40
55992;DHT22;66896;50.924;4.572;2023-02-12T04:56:36;7.50;92.30
55992;DHT22;66896;50.924;4.572;2023-02-12T04:59:02;7.50;90.90
55992;DHT22;66896;50.924;4.572;2023-02-12T05:01:28;7.70;90.00
55992;DHT22;66896;50.924;4.572;2023-02-12T05:03:53;7.80;89.70
55992;DHT22;66896;50.924;4.572;2023-02-12T05:06:19;7.80;90.40
55992;DHT22;66896;50.924;4.572;2023-02-12T05:08:44;7.90;90.30
55992;DHT22;66896;50.924;4.572;2023-02-12T05:11:10;7.90;90.50
55992;DHT22;66896;50.924;4.572;2023-02-12T05:13:36;8.00;90.40
55992;DHT22;66896;50.924;4.572;2023-02-12T05:16:02;7.90;90.60
55992;DHT22;66896;50.924;4.572;2023-02-12T05:18:29;8.00;90.70
55992;DHT22;66896;50.924;4.572;2023-02-12T05:20:55;8.10;90.50
55992;DHT22;66896;50.924;4.572;2023-02-12T05:23:21;7.80;91.30
55992;DHT22;66896;50.924;4.572;2023-02-12T05:25:47;7.80;91.70
55992;DHT22;66896;50.924;4.572;2023-02-12T05:28:13;7.90;91.30
55992;DHT22;66896;50.924;4.572;2023-02-12T05:30:39;7.90;91.40
55992;DHT22;66896;50.924;4.572;2023-02-12T05:33:04;7.80;91.20
55992;DHT22;66896;50.924;4.572;2023-02-12T05:35:31;7.70;91.40
55992;DHT22;66896;50.924;4.572;2023-02-12T05:37:58;7.70;91.40
55992;DHT22;66896;50.924;4.572;2023-02-12T05:40:24;7.80;91.10
55992;DHT22;66896;50.924;4.572;2023-02-12T05:42:52;7.70;90.00
55992;DHT22;66896;50.924;4.572;2023-02-12T05:45:18;7.70;90.80
55992;DHT22;66896;50.924;4.572;2023-02-12T05:47:44;7.70;91.00
55992;DHT22;66896;50.924;4.572;2023-02-12T05:50:09;7.60;90.30
55992;DHT22;66896;50.924;4.572;2023-02-12T05:52:35;7.80;89.50
55992;DHT22;66896;50.924;4.572;2023-02-12T05:55:01;7.90;90.40
55992;DHT22;66896;50.924;4.572;2023-02-12T05:57:27;7.90;90.50
55992;DHT22;66896;50.924;4.572;2023-02-12T05:59:52;8.00;90.50
55992;DHT22;66896;50.924;4.572;2023-02-12T06:02:18;7.80;90.20
55992;DHT22;66896;50.924;4.572;2023-02-12T06:04:43;7.50;91.00
55992;DHT22;66896;50.924;4.572;2023-02-12T06:07:09;7.60;91.40
55992;DHT22;66896;50.924;4.572;2023-02-12T06:09:34;7.60;90.70
55992;DHT22;66896;50.924;4.572;2023-02-12T06:12:01;7.80;90.20
55992;DHT22;66896;50.924;4.572;2023-02-12T06:14:27;7.80;90.60
55992;DHT22;66896;50.924;4.572;2023-02-12T06:16:52;7.90;90.70
55992;DHT22;66896;50.924;4.572;2023-02-12T06:19:18;7.70;90.50
55992;DHT22;66896;50.924;4.572;2023-02-12T06:21:44;7.50;90.80
55992;DHT22;66896;50.924;4.572;2023-02-12T06:24:13;7.80;90.70
55992;DHT22;66896;50.924;4.572;2023-02-12T06:26:39;7.60;91.30
55992;DHT22;66896;50.924;4.572;2023-02-12T06:29:04;7.60;91.20
55992;DHT22;66896;50.924;4.572;2023-02-12T06:31:31;7.60;91.20
55992;DHT22;66896;50.924;4.572;2023-02-12T06:33:59;7.70;90.60
55992;DHT22;66896;50.924;4.572;2023-02-12T06:36:25;7.70;90.20
55992;DHT22;66896;50.924;4.572;2023-02-12T06:38:51;7.70;90.40
55992;DHT22;66896;50.924;4.572;2023-02-12T06:41:16;7.70;90.50
55992;DHT22;66896;50.924;4.572;2023-02-12T06:43:45;7.90;90.60
55992;DHT22;66896;50.924;4.572;2023-02-12T06:46:11;7.90;90.30
55992;DHT22;66896;50.924;4.572;2023-02-12T06:48:37;7.80;90.50
55992;DHT22;66896;50.924;4.572;2023-02-12T06:51:09;7.40;91.50
55992;DHT22;66896;50.924;4.572;2023-02-12T06:53:35;7.50;91.60
55992;DHT22;66896;50.924;4.572;2023-02-12T06:56:05;7.60;91.00
55992;DHT22;66896;50.924;4.572;2023-02-12T06:58:31;7.10;92.40
55992;DHT22;66896;50.924;4.572;2023-02-12T07:00:56;7.30;92.20
55992;DHT22;66896;50.924;4.572;2023-02-12T07:03:31;7.20;92.40
55992;DHT22;66896;50.924;4.572;2023-02-12T07:05:57;7.00;92.10
55992;DHT22;66896;50.924;4.572;2023-02-12T07:08:23;7.20;92.00
55992;DHT22;66896;50.924;4.572;2023-02-12T07:10:48;7.30;91.70
55992;DHT22;66896;50.924;4.572;2023-02-12T07:13:14;7.50;90.90
55992;DHT22;66896;50.924;4.572;2023-02-12T07:15:40;7.70;90.50
55992;DHT22;66896;50.924;4.572;2023-02-12T07:18:06;7.70;90.50
55992;DHT22;66896;50.924;4.572;2023-02-12T07:20:31;7.70;90.20
55992;DHT22;66896;50.924;4.572;2023-02-12T07:22:57;7.60;90.10
55992;DHT22;66896;50.924;4.572;2023-02-12T07:25:22;7.60;90.00
55992;DHT22;66896;50.924;4.572;2023-02-12T07:27:48;7.70;89.60
55992;DHT22;66896;50.924;4.572;2023-02-12T07:30:14;7.90;88.50
55992;DHT22;66896;50.924;4.572;2023-02-12T07:32:39;7.80;90.20
55992;DHT22;66896;50.924;4.572;2023-02-12T07:35:05;8.20;88.30
55992;DHT22;66896;50.924;4.572;2023-02-12T07:37:31;8.20;87.40
55992;DHT22;66896;50.924;4.572;2023-02-12T07:39:57;7.80;88.90
55992;DHT22;66896;50.924;4.572;2023-02-12T07:42:23;7.70;90.10
55992;DHT22;66896;50.924;4.572;2023-02-12T07:44:48;7.50;90.90
55992;DHT22;66896;50.924;4.572;2023-02-12T07:47:14;7.80;90.50
55992;DHT22;66896;50.924;4.572;2023-02-12T07:49:40;7.60;91.00
55992;DHT22;66896;50.924;4.572;2023-02-12T07:52:06;7.80;91.10
55992;DHT22;66896;50.924;4.572;2023-02-12T07:54:31;7.90;90.30
55992;DHT22;66896;50.924;4.572;2023-02-12T07:56:57;7.90;90.10
55992;DHT22;66896;50.924;4.572;2023-02-12T07:59:25;8.00;90.20
55992;DHT22;66896;50.924;4.572;2023-02-12T08:01:52;8.10;90.20
55992;DHT22;66896;50.924;4.572;2023-02-12T08:04:18;8.20;87.60
55992;DHT22;66896;50.924;4.572;2023-02-12T08:06:45;7.90;87.50
55992;DHT22;66896;50.924;4.572;2023-02-12T08:09:12;7.90;87.40
55992;DHT22;66896;50.924;4.572;2023-02-12T08:11:38;8.00;88.80
55992;DHT22;66896;50.924;4.572;2023-02-12T08:14:04;8.20;89.30
55992;DHT22;66896;50.924;4.572;2023-02-12T08:16:30;8.00;90.80
55992;DHT22;66896;50.924;4.572;2023-02-12T08:18:56;7.90;90.90
55992;DHT22;66896;50.924;4.572;2023-02-12T08:21:22;7.80;91.10
55992;DHT22;66896;50.924;4.572;2023-02-12T08:23:48;7.70;91.20
55992;DHT22;66896;50.924;4.572;2023-02-12T08:26:25;7.80;91.60
55992;DHT22;66896;50.924;4.572;2023-02-12T08:28:54;7.90;91.10
55992;DHT22;66896;50.924;4.572;2023-02-12T08:31:21;7.80;91.10
55992;DHT22;66896;50.924;4.572;2023-02-12T08:33:47;8.00;90.80
55992;DHT22;66896;50.924;4.572;2023-02-12T08:36:14;8.10;90.50
55992;DHT22;66896;50.924;4.572;2023-02-12T08:38:41;8.20;90.20
55992;DHT22;66896;50.924;4.572;2023-02-12T08:41:11;8.10;90.70
55992;DHT22;66896;50.924;4.572;2023-02-12T08:43:37;8.00;91.40
55992;DHT22;66896;50.924;4.572;2023-02-12T08:46:04;8.20;90.80
55992;DHT22;66896;50.924;4.572;2023-02-12T08:48:33;8.30;90.80
55992;DHT22;66896;50.924;4.572;2023-02-12T08:51:06;8.40;90.50
55992;DHT22;66896;50.924;4.572;2023-02-12T08:53:32;8.40;90.20
55992;DHT22;66896;50.924;4.572;2023-02-12T08:55:58;8.20;90.50
55992;DHT22;66896;50.924;4.572;2023-02-12T08:58:23;8.10;90.90
55992;DHT22;66896;50.924;4.572;2023-02-12T09:00:49;8.10;91.30
55992;DHT22;66896;50.924;4.572;2023-02-12T09:03:14;8.20;91.10
55992;DHT22;66896;50.924;4.572;2023-02-12T09:05:40;8.40;90.50
55992;DHT22;66896;50.924;4.572;2023-02-12T09:08:06;8.60;89.20
55992;DHT22;66896;50.924;4.572;2023-02-12T09:10:31;8.90;88.40
55992;DHT22;66896;50.924;4.572;2023-02-12T09:12:57;9.00;87.80
55992;DHT22;66896;50.924;4.572;2023-02-12T09:15:23;8.80;88.40
55992;DHT22;66896;50.924;4.572;2023-02-12T09:17:48;8.80;89.90
55992;DHT22;66896;50.924;4.572;2023-02-12T09:20:14;9.00;89.40
55992;DHT22;66896;50.924;4.572;2023-02-12T09:22:40;9.10;89.10
55992;DHT22;66896;50.924;4.572;2023-02-12T09:25:06;9.30;88.30
55992;DHT22;66896;50.924;4.572;2023-02-12T09:27:31;9.30;87.70
55992;DHT22;66896;50.924;4.572;2023-02-12T09:29:57;9.30;87.90
55992;DHT22;66896;50.924;4.572;2023-02-12T09:32:22;9.40;87.70
55992;DHT22;66896;50.924;4.572;2023-02-12T09:34:48;9.40;86.20
55992;DHT22;66896;50.924;4.572;2023-02-12T09:37:14;9.30;86.70
55992;DHT22;66896;50.924;4.572;2023-02-12T09:39:39;9.00;86.40
55992;DHT22;66896;50.924;4.572;2023-02-12T09:49:53;9.10;84.40
55992;DHT22;66896;50.924;4.572;2023-02-12T09:52:21;9.10;85.50
55992;DHT22;66896;50.924;4.572;2023-02-12T09:54:48;9.00;85.80
55992;DHT22;66896;50.924;4.572;2023-02-12T09:57:33;9.30;86.10
55992;DHT22;66896;50.924;4.572;2023-02-12T10:00:04;9.60;84.30
55992;DHT22;66896;50.924;4.572;2023-02-12T10:02:31;9.60;83.10
55992;DHT22;66896;50.924;4.572;2023-02-12T10:04:59;9.90;82.20
55992;DHT22;66896;50.924;4.572;2023-02-12T10:15:23;9.80;81.80
55992;DHT22;66896;50.924;4.572;2023-02-12T10:25:58;10.10;80.00
55992;DHT22;66896;50.924;4.572;2023-02-12T10:28:27;10.10;81.30
55992;DHT22;66896;50.924;4.572;2023-02-12T10:30:59;10.30;80.00
55992;DHT22;66896;50.924;4.572;2023-02-12T10:35:53;10.50;79.10
55992;DHT22;66896;50.924;4.572;2023-02-12T10:38:21;10.30;78.20
55992;DHT22;66896;50.924;4.572;2023-02-12T10:40:48;10.40;78.70
55992;DHT22;66896;50.924;4.572;2023-02-12T10:43:15;10.60;77.60
55992;DHT22;66896;50.924;4.572;2023-02-12T10:45:41;10.10;78.40
55992;DHT22;66896;50.924;4.572;2023-02-12T10:48:20;10.10;78.30
55992;DHT22;66896;50.924;4.572;2023-02-12T10:53:22;10.10;77.60
55992;DHT22;66896;50.924;4.572;2023-02-12T10:55:48;9.80;78.20
55992;DHT22;66896;50.924;4.572;2023-02-12T10:58:23;10.00;78.70
55992;DHT22;66896;50.924;4.572;2023-02-12T11:00:55;10.30;77.10
55992;DHT22;66896;50.924;4.572;2023-02-12T11:03:21;10.60;74.80
55992;DHT22;66896;50.924;4.572;2023-02-12T11:05:47;10.80;73.80
55992;DHT22;66896;50.924;4.572;2023-02-12T11:08:30;10.80;73.30
55992;DHT22;66896;50.924;4.572;2023-02-12T11:11:01;10.60;73.50
55992;DHT22;66896;50.924;4.572;2023-02-12T11:13:28;10.70;74.00
55992;DHT22;66896;50.924;4.572;2023-02-12T11:15:54;10.80;73.40
55992;DHT22;66896;50.924;4.572;2023-02-12T11:18:24;10.40;74.50
55992;DHT22;66896;50.924;4.572;2023-02-12T11:20:51;10.30;74.80
55992;DHT22;66896;50.924;4.572;2023-02-12T11:23:21;10.30;75.70
55992;DHT22;66896;50.924;4.572;2023-02-12T11:25:58;10.50;76.30
55992;DHT22;66896;50.924;4.572;2023-02-12T11:28:24;10.80;73.40
55992;DHT22;66896;50.924;4.572;2023-02-12T11:35:50;10.90;73.20
55992;DHT22;66896;50.924;4.572;2023-02-12T11:38:24;10.80;74.30
55992;DHT22;66896;50.924;4.572;2023-02-12T11:40:52;10.90;74.10
55992;DHT22;66896;50.924;4.572;2023-02-12T11:43:18;11.00;74.50
55992;DHT22;66896;50.924;4.572;2023-02-12T11:45:47;10.90;74.00
55992;DHT22;66896;50.924;4.572;2023-02-12T11:48:21;10.90;73.20
55992;DHT22;66896;50.924;4.572;2023-02-12T11:50:48;10.60;74.80
55992;DHT22;66896;50.924;4.572;2023-02-12T11:53:20;10.50;74.80
55992;DHT22;66896;50.924;4.572;2023-02-12T11:55:54;10.80;74.30
55992;DHT22;66896;50.924;4.572;2023-02-12T11:58:21;11.00;73.30
55992;DHT22;66896;50.924;4.572;2023-02-12T12:03:34;11.30;73.60
55992;DHT22;66896;50.924;4.572;2023-02-12T12:06:04;11.30;72.30
55992;DHT22;66896;50.924;4.572;2023-02-12T12:11:13;11.40;72.20
55992;DHT22;66896;50.924;4.572;2023-02-12T12:13:44;11.40;70.40
55992;DHT22;66896;50.924;4.572;2023-02-12T12:16:53;11.20;70.70
55992;DHT22;66896;50.924;4.572;2023-02-12T12:19:23;11.40;71.30
55992;DHT22;66896;50.924;4.572;2023-02-12T12:22:15;10.90;72.00
55992;DHT22;66896;50.924;4.572;2023-02-12T12:24:59;10.90;73.00
55992;DHT22;66896;50.924;4.572;2023-02-12T12:32:58;11.00;72.90
55992;DHT22;66896;50.924;4.572;2023-02-12T12:35:36;10.90;72.20
55992;DHT22;66896;50.924;4.572;2023-02-12T12:38:11;11.00;71.60
55992;DHT22;66896;50.924;4.572;2023-02-12T12:43:12;10.70;73.30
55992;DHT22;66896;50.924;4.572;2023-02-12T13:01:37;11.00;72.10
55992;DHT22;66896;50.924;4.572;2023-02-12T13:07:03;11.50;70.80
55992;DHT22;66896;50.924;4.572;2023-02-12T13:12:24;11.60;70.70
55992;DHT22;66896;50.924;4.572;2023-02-12T13:14:58;11.80;69.30
55992;DHT22;66896;50.924;4.572;2023-02-12T13:22:26;11.40;70.40
55992;DHT22;66896;50.924;4.572;2023-02-12T13:25:00;11.20;70.90
55992;DHT22;66896;50.924;4.572;2023-02-12T13:27:31;11.30;69.90
55992;DHT22;66896;50.924;4.572;2023-02-12T13:32:43;11.40;71.00
55992;DHT22;66896;50.924;4.572;2023-02-12T13:35:18;11.40;70.50
55992;DHT22;66896;50.924;4.572;2023-02-12T13:37:48;11.30;70.90
55992;DHT22;66896;50.924;4.572;2023-02-12T13:40:24;11.30;70.90
55992;DHT22;66896;50.924;4.572;2023-02-12T13:50:46;11.30;71.70
55992;DHT22;66896;50.924;4.572;2023-02-12T13:55:45;11.00;71.20
55992;DHT22;66896;50.924;4.572;2023-02-12T14:03:25;11.20;70.30
55992;DHT22;66896;50.924;4.572;2023-02-12T14:06:07;11.10;71.40
55992;DHT22;66896;50.924;4.572;2023-02-12T14:08:36;11.20;71.00
55992;DHT22;66896;50.924;4.572;2023-02-12T14:11:03;11.20;71.20
55992;DHT22;66896;50.924;4.572;2023-02-12T14:13:31;11.50;70.60
55992;DHT22;66896;50.924;4.572;2023-02-12T14:15:58;11.30;70.70
55992;DHT22;66896;50.924;4.572;2023-02-12T14:18:43;11.40;69.40
55992;DHT22;66896;50.924;4.572;2023-02-12T14:23:39;11.20;69.80
55992;DHT22;66896;50.924;4.572;2023-02-12T14:26:07;11.10;70.40
55992;DHT22;66896;50.924;4.572;2023-02-12T14:33:48;11.00;71.10
55992;DHT22;66896;50.924;4.572;2023-02-12T14:36:16;11.00;71.10
55992;DHT22;66896;50.924;4.572;2023-02-12T14:46:57;10.80;73.30
55992;DHT22;66896;50.924;4.572;2023-02-12T14:49:24;10.80;73.70
55992;DHT22;66896;50.924;4.572;2023-02-12T14:54:26;11.00;72.60
55992;DHT22;66896;50.924;4.572;2023-02-12T14:56:54;11.00;72.90
55992;DHT22;66896;50.924;4.572;2023-02-12T14:59:22;10.80;74.30
55992;DHT22;66896;50.924;4.572;2023-02-12T15:01:49;10.70;73.80
55992;DHT22;66896;50.924;4.572;2023-02-12T15:04:16;10.90;73.70
55992;DHT22;66896;50.924;4.572;2023-02-12T15:06:51;11.00;73.50
55992;DHT22;66896;50.924;4.572;2023-02-12T15:09:23;11.10;73.00
55992;DHT22;66896;50.924;4.572;2023-02-12T15:11:57;11.20;73.10
55992;DHT22;66896;50.924;4.572;2023-02-12T15:14:26;11.00;73.60
55992;DHT22;66896;50.924;4.572;2023-02-12T15:17:04;11.20;72.60
55992;DHT22;66896;50.924;4.572;2023-02-12T15:19:44;11.10;72.80
55992;DHT22;66896;50.924;4.572;2023-02-12T15:22:17;11.10;73.40
55992;DHT22;66896;50.924;4.572;2023-02-12T15:24:43;10.90;73.50
55992;DHT22;66896;50.924;4.572;2023-02-12T15:27:19;10.90;74.50
55992;DHT22;66896;50.924;4.572;2023-02-12T15:29:48;11.00;74.70
55992;DHT22;66896;50.924;4.572;2023-02-12T15:32:17;10.90;74.00
55992;DHT22;66896;50.924;4.572;2023-02-12T15:34:43;10.80;73.80
55992;DHT22;66896;50.924;4.572;2023-02-12T15:37:15;11.00;73.70
55992;DHT22;66896;50.924;4.572;2023-02-12T15:39:43;10.80;74.10
55992;DHT22;66896;50.924;4.572;2023-02-12T15:42:30;10.80;74.70
55992;DHT22;66896;50.924;4.572;2023-02-12T15:45:18;10.80;74.40
55992;DHT22;66896;50.924;4.572;2023-02-12T15:47:42;10.80;74.40
55992;DHT22;66896;50.924;4.572;2023-02-12T15:50:12;10.50;76.10
55992;DHT22;66896;50.924;4.572;2023-02-12T15:52:38;10.60;76.30
55992;DHT22;66896;50.924;4.572;2023-02-12T15:55:04;10.30;77.70
55992;DHT22;66896;50.924;4.572;2023-02-12T15:57:30;10.10;78.90
55992;DHT22;66896;50.924;4.572;2023-02-12T15:59:58;10.00;79.50
55992;DHT22;66896;50.924;4.572;2023-02-12T16:02:28;10.10;79.20
55992;DHT22;66896;50.924;4.572;2023-02-12T16:04:55;10.10;79.40
55992;DHT22;66896;50.924;4.572;2023-02-12T16:07:21;10.10;79.10
55992;DHT22;66896;50.924;4.572;2023-02-12T16:09:47;10.10;78.90
55992;DHT22;66896;50.924;4.572;2023-02-12T16:12:14;10.20;78.90
55992;DHT22;66896;50.924;4.572;2023-02-12T16:17:25;10.20;79.10
55992;DHT22;66896;50.924;4.572;2023-02-12T16:19:56;10.20;78.70
55992;DHT22;66896;50.924;4.572;2023-02-12T16:22:26;10.10;78.60
55992;DHT22;66896;50.924;4.572;2023-02-12T16:24:53;10.10;79.50
55992;DHT22;66896;50.924;4.572;2023-02-12T16:27:21;10.10;80.00
55992;DHT22;66896;50.924;4.572;2023-02-12T16:30:34;10.10;79.80
55992;DHT22;66896;50.924;4.572;2023-02-12T16:32:38;10.10;80.40
55992;DHT22;66896;50.924;4.572;2023-02-12T16:47:49;9.80;81.50
55992;DHT22;66896;50.924;4.572;2023-02-12T16:50:16;9.80;82.10
55992;DHT22;66896;50.924;4.572;2023-02-12T16:52:41;9.70;82.30
55992;DHT22;66896;50.924;4.572;2023-02-12T16:55:15;9.70;83.40
55992;DHT22;66896;50.924;4.572;2023-02-12T16:57:41;9.80;82.80
55992;DHT22;66896;50.924;4.572;2023-02-12T17:00:10;9.70;82.50
55992;DHT22;66896;50.924;4.572;2023-02-12T17:02:36;9.70;82.00
55992;DHT22;66896;50.924;4.572;2023-02-12T17:05:02;9.70;82.30
55992;DHT22;66896;50.924;4.572;2023-02-12T17:07:31;9.70;82.30
55992;DHT22;66896;50.924;4.572;2023-02-12T17:09:57;9.60;82.70
55992;DHT22;66896;50.924;4.572;2023-02-12T17:12:23;9.70;82.90
55992;DHT22;66896;50.924;4.572;2023-02-12T17:14:49;9.80;81.80
55992;DHT22;66896;50.924;4.572;2023-02-12T17:17:15;9.80;82.30
55992;DHT22;66896;50.924;4.572;2023-02-12T17:19:41;9.80;82.30
55992;DHT22;66896;50.924;4.572;2023-02-12T17:22:07;9.90;82.50
55992;DHT22;66896;50.924;4.572;2023-02-12T17:24:40;9.80;82.00
55992;DHT22;66896;50.924;4.572;2023-02-12T17:27:05;9.90;82.20
55992;DHT22;66896;50.924;4.572;2023-02-12T17:29:32;9.90;81.90
55992;DHT22;66896;50.924;4.572;2023-02-12T17:31:57;10.00;81.20
55992;DHT22;66896;50.924;4.572;2023-02-12T17:34:24;10.00;81.10
55992;DHT22;66896;50.924;4.572;2023-02-12T17:36:50;10.00;81.10
55992;DHT22;66896;50.924;4.572;2023-02-12T17:39:15;9.90;82.00
55992;DHT22;66896;50.924;4.572;2023-02-12T17:41:41;9.80;82.90
55992;DHT22;66896;50.924;4.572;2023-02-12T17:44:08;9.80;82.50
55992;DHT22;66896;50.924;4.572;2023-02-12T17:46:34;9.80;82.20
55992;DHT22;66896;50.924;4.572;2023-02-12T17:48:59;9.80;82.50
55992;DHT22;66896;50.924;4.572;2023-02-12T17:51:25;9.60;83.20
55992;DHT22;66896;50.924;4.572;2023-02-12T17:53:51;9.60;83.50
55992;DHT22;66896;50.924;4.572;2023-02-12T17:56:18;9.80;82.90
55992;DHT22;66896;50.924;4.572;2023-02-12T17:58:43;9.80;82.30
55992;DHT22;66896;50.924;4.572;2023-02-12T18:01:11;9.90;82.30
55992;DHT22;66896;50.924;4.572;2023-02-12T18:03:37;9.80;82.30
55992;DHT22;66896;50.924;4.572;2023-02-12T18:06:03;9.90;82.70
55992;DHT22;66896;50.924;4.572;2023-02-12T18:08:29;9.90;82.40
55992;DHT22;66896;50.924;4.572;2023-02-12T18:10:55;9.90;82.20
55992;DHT22;66896;50.924;4.572;2023-02-12T18:13:20;9.90;82.60
55992;DHT22;66896;50.924;4.572;2023-02-12T18:15:46;9.80;82.90
55992;DHT22;66896;50.924;4.572;2023-02-12T18:18:11;9.70;83.40
55992;DHT22;66896;50.924;4.572;2023-02-12T18:20:40;9.80;83.60
55992;DHT22;66896;50.924;4.572;2023-02-12T18:23:06;9.80;83.00
55992;DHT22;66896;50.924;4.572;2023-02-12T18:25:33;9.70;83.40
55992;DHT22;66896;50.924;4.572;2023-02-12T18:27:58;9.80;83.20
55992;DHT22;66896;50.924;4.572;2023-02-12T18:30:26;9.70;83.40
55992;DHT22;66896;50.924;4.572;2023-02-12T18:32:51;9.80;83.40
55992;DHT22;66896;50.924;4.572;2023-02-12T18:35:17;9.70;83.30